createdAt,value
2017-05-13T00:00:47.638Z,4.00
2017-05-13T00:01:48.366Z,4.00
2017-05-13T00:02:49.090Z,4.00
2017-05-13T00:03:49.819Z,3.00
2017-05-13T00:04:50.797Z,4.00
2017-05-13T00:05:53.776Z,4.00
2017-05-13T00:06:54.502Z,3.00
2017-05-13T00:07:55.226Z,4.00
2017-05-13T00:08:55.953Z,3.00
2017-05-13T00:09:56.949Z,4.00
2017-05-13T00:10:57.700Z,4.00
2017-05-13T00:11:58.425Z,4.00
2017-05-13T00:12:59.150Z,4.00
2017-05-13T00:13:59.879Z,4.00
2017-05-13T00:15:00.855Z,4.00
2017-05-13T00:16:01.587Z,18.00
2017-05-13T00:17:02.312Z,12.00
2017-05-13T00:18:03.065Z,10.00
2017-05-13T00:19:03.792Z,12.00
2017-05-13T00:20:04.770Z,13.00
2017-05-13T00:21:05.499Z,13.00
2017-05-13T00:22:06.223Z,9.00
2017-05-13T00:23:06.950Z,8.00
2017-05-13T00:24:07.703Z,12.00
2017-05-13T00:25:08.679Z,4.00
2017-05-13T00:26:09.408Z,8.00
2017-05-13T00:27:10.135Z,5.00
2017-05-13T00:28:10.859Z,6.00
2017-05-13T00:29:11.586Z,6.00
2017-05-13T00:30:12.562Z,4.00
2017-05-13T00:31:13.288Z,6.00
2017-05-13T00:32:14.016Z,4.00
2017-05-13T00:33:14.737Z,5.00
2017-05-13T00:34:15.465Z,6.00
2017-05-13T00:35:16.435Z,6.00
2017-05-13T00:36:17.164Z,7.00
2017-05-13T00:37:17.907Z,5.00
2017-05-13T00:38:18.633Z,7.00
2017-05-13T00:39:19.362Z,6.00
2017-05-13T00:40:20.339Z,5.00
2017-05-13T00:41:21.067Z,4.00
2017-05-13T00:42:21.794Z,7.00
2017-05-13T00:43:22.523Z,10.00
2017-05-13T00:44:23.252Z,6.00
2017-05-13T00:45:24.227Z,5.00
2017-05-13T00:46:24.957Z,5.00
2017-05-13T00:47:25.707Z,5.00
2017-05-13T00:48:26.431Z,5.00
2017-05-13T00:49:27.156Z,5.00
2017-05-13T00:50:28.133Z,5.00
2017-05-13T00:51:28.861Z,5.00
2017-05-13T00:52:29.584Z,5.00
2017-05-13T00:53:30.314Z,4.00
2017-05-13T00:54:31.037Z,4.00
2017-05-13T00:55:32.012Z,5.00
2017-05-13T00:56:32.741Z,5.00
2017-05-13T00:57:33.466Z,6.00
2017-05-13T00:58:34.193Z,5.00
2017-05-13T00:59:34.921Z,5.00
2017-05-13T01:00:35.918Z,5.00
2017-05-13T01:01:36.644Z,6.00
2017-05-13T01:02:37.374Z,5.00
2017-05-13T01:03:38.430Z,5.00
2017-05-13T01:04:39.087Z,5.00
2017-05-13T01:05:40.064Z,4.00
2017-05-13T01:06:40.791Z,5.00
2017-05-13T01:07:41.543Z,5.00
2017-05-13T01:08:42.271Z,5.00
2017-05-13T01:09:42.996Z,5.00
2017-05-13T01:10:43.999Z,4.00
2017-05-13T01:11:44.726Z,5.00
2017-05-13T01:12:45.454Z,5.00
2017-05-13T01:13:46.180Z,5.00
2017-05-13T01:14:46.907Z,4.00
2017-05-13T01:15:47.931Z,6.00
2017-05-13T01:16:48.662Z,6.00
2017-05-13T01:17:49.386Z,5.00
2017-05-13T01:18:50.112Z,5.00
2017-05-13T01:19:50.838Z,5.00
2017-05-13T01:20:51.815Z,5.00
2017-05-13T01:21:52.539Z,6.00
2017-05-13T01:22:53.257Z,6.00
2017-05-13T01:23:53.983Z,5.00
2017-05-13T01:24:54.710Z,5.00
2017-05-13T01:25:55.689Z,7.00
2017-05-13T01:26:56.418Z,6.00
2017-05-13T01:27:57.146Z,6.00
2017-05-13T01:28:57.870Z,7.00
2017-05-13T01:29:58.597Z,6.00
2017-05-13T01:30:59.567Z,9.00
2017-05-13T01:32:00.295Z,6.00
2017-05-13T01:33:01.020Z,7.00
2017-05-13T01:34:01.748Z,6.00
2017-05-13T01:35:02.475Z,7.00
2017-05-13T01:36:03.454Z,7.00
2017-05-13T01:37:04.182Z,8.00
2017-05-13T01:38:04.909Z,8.00
2017-05-13T01:39:05.636Z,6.00
2017-05-13T01:40:06.363Z,9.00
2017-05-13T01:41:07.342Z,8.00
2017-05-13T01:42:08.066Z,7.00
2017-05-13T01:43:08.792Z,7.00
2017-05-13T01:44:09.518Z,8.00
2017-05-13T01:45:10.248Z,7.00
2017-05-13T01:46:11.224Z,7.00
2017-05-13T01:47:11.952Z,6.00
2017-05-13T01:48:12.678Z,7.00
2017-05-13T01:49:13.405Z,6.00
2017-05-13T01:50:14.129Z,6.00
2017-05-13T01:51:15.114Z,9.00
2017-05-13T01:52:15.837Z,7.00
2017-05-13T01:53:16.563Z,6.00
2017-05-13T01:54:17.290Z,7.00
2017-05-13T01:55:18.018Z,7.00
2017-05-13T01:56:18.997Z,9.00
2017-05-13T01:57:19.714Z,8.00
2017-05-13T01:59:36.031Z,7.00
2017-05-13T02:00:36.784Z,8.00
2017-05-13T02:01:37.762Z,8.00
2017-05-13T02:02:38.487Z,7.00
2017-05-13T02:03:39.214Z,7.00
2017-05-13T02:04:39.939Z,7.00
2017-05-13T02:05:40.694Z,8.00
2017-05-13T02:06:41.671Z,7.00
2017-05-13T02:07:42.396Z,6.00
2017-05-13T02:08:43.124Z,9.00
2017-05-13T02:09:43.850Z,8.00
2017-05-13T02:10:44.577Z,6.00
2017-05-13T02:11:45.554Z,11.00
2017-05-13T02:12:46.286Z,8.00
2017-05-13T02:13:47.010Z,9.00
2017-05-13T02:14:47.740Z,9.00
2017-05-13T02:15:48.468Z,8.00
2017-05-13T02:16:49.444Z,11.00
2017-05-13T02:17:50.171Z,9.00
2017-05-13T02:18:50.923Z,11.00
2017-05-13T02:19:51.654Z,11.00
2017-05-13T02:20:52.382Z,10.00
2017-05-13T02:21:53.365Z,9.00
2017-05-13T02:22:54.095Z,10.00
2017-05-13T02:23:54.820Z,9.00
2017-05-13T02:24:55.542Z,10.00
2017-05-13T02:25:56.297Z,10.00
2017-05-13T02:26:57.275Z,12.00
2017-05-13T02:27:58.004Z,10.00
2017-05-13T02:28:58.734Z,11.00
2017-05-13T02:29:59.463Z,10.00
2017-05-13T02:31:00.189Z,10.00
2017-05-13T02:32:01.167Z,10.00
2017-05-13T02:33:01.921Z,11.00
2017-05-13T02:34:02.647Z,10.00
2017-05-13T02:35:03.375Z,9.00
2017-05-13T02:36:04.101Z,9.00
2017-05-13T02:37:05.076Z,9.00
2017-05-13T02:38:05.803Z,8.00
2017-05-13T02:39:06.556Z,9.00
2017-05-13T02:40:07.284Z,9.00
2017-05-13T02:41:08.008Z,9.00
2017-05-13T02:42:08.986Z,8.00
2017-05-13T02:43:09.738Z,8.00
2017-05-13T02:44:10.465Z,10.00
2017-05-13T02:45:11.456Z,10.00
2017-05-13T02:46:12.181Z,10.00
2017-05-13T02:47:13.159Z,10.00
2017-05-13T02:48:13.888Z,11.00
2017-05-13T02:49:14.640Z,13.00
2017-05-13T02:50:15.391Z,11.00
2017-05-13T02:51:16.147Z,10.00
2017-05-13T02:52:17.175Z,10.00
2017-05-13T02:53:17.904Z,11.00
2017-05-13T02:54:18.627Z,12.00
2017-05-13T02:55:19.356Z,12.00
2017-05-13T02:56:20.085Z,15.00
2017-05-13T02:57:21.064Z,13.00
2017-05-13T02:58:21.817Z,15.00
2017-05-13T02:59:22.545Z,15.00
2017-05-13T03:00:23.275Z,15.00
2017-05-13T03:01:24.002Z,13.00
2017-05-13T03:02:24.983Z,14.00
2017-05-13T03:03:25.713Z,12.00
2017-05-13T03:04:26.442Z,13.00
2017-05-13T03:05:27.167Z,12.00
2017-05-13T03:06:27.901Z,12.00
2017-05-13T03:07:28.879Z,14.00
2017-05-13T03:08:29.603Z,12.00
2017-05-13T03:09:30.333Z,15.00
2017-05-13T03:10:31.086Z,12.00
2017-05-13T03:11:31.813Z,12.00
2017-05-13T03:12:32.794Z,11.00
2017-05-13T03:13:33.517Z,8.00
2017-05-13T03:14:34.246Z,9.00
2017-05-13T03:15:34.976Z,10.00
2017-05-13T03:16:35.702Z,12.00
2017-05-13T03:17:36.681Z,10.00
2017-05-13T03:18:37.410Z,11.00
2017-05-13T03:19:38.140Z,9.00
2017-05-13T03:20:38.871Z,11.00
2017-05-13T03:21:39.600Z,9.00
2017-05-13T03:22:40.604Z,9.00
2017-05-13T03:23:41.334Z,13.00
2017-05-13T03:24:42.064Z,9.00
2017-05-13T03:25:42.791Z,9.00
2017-05-13T03:26:43.520Z,9.00
2017-05-13T03:27:44.521Z,9.00
2017-05-13T03:28:45.249Z,8.00
2017-05-13T03:29:45.977Z,9.00
2017-05-13T03:30:46.706Z,8.00
2017-05-13T03:31:47.487Z,8.00
2017-05-13T03:32:48.467Z,7.00
2017-05-13T03:33:49.191Z,9.00
2017-05-13T03:34:49.923Z,8.00
2017-05-13T03:35:50.652Z,10.00
2017-05-13T03:36:51.378Z,8.00
2017-05-13T03:37:52.363Z,8.00
2017-05-13T03:38:53.087Z,8.00
2017-05-13T03:39:53.848Z,9.00
2017-05-13T03:40:54.545Z,7.00
2017-05-13T03:41:55.276Z,9.00
2017-05-13T03:42:56.256Z,8.00
2017-05-13T03:43:56.982Z,8.00
2017-05-13T03:44:57.713Z,9.00
2017-05-13T03:45:58.448Z,8.00
2017-05-13T03:46:59.178Z,10.00
2017-05-13T03:48:00.160Z,8.00
2017-05-13T03:49:00.893Z,11.00
2017-05-13T03:50:01.621Z,11.00
2017-05-13T03:51:02.377Z,9.00
2017-05-13T03:52:03.108Z,8.00
2017-05-13T03:53:04.088Z,10.00
2017-05-13T03:54:04.819Z,9.00
2017-05-13T03:55:05.550Z,10.00
2017-05-13T03:56:06.281Z,8.00
2017-05-13T03:57:07.011Z,10.00
2017-05-13T03:58:07.993Z,9.00
2017-05-13T03:59:08.721Z,9.00
2017-05-13T04:00:09.453Z,8.00
2017-05-13T04:01:10.184Z,8.00
2017-05-13T04:02:10.939Z,9.00
2017-05-13T04:03:11.918Z,9.00
2017-05-13T04:04:12.649Z,9.00
2017-05-13T04:05:13.381Z,10.00
2017-05-13T04:06:14.114Z,9.00
2017-05-13T04:07:14.867Z,10.00
2017-05-13T04:08:15.848Z,10.00
2017-05-13T04:09:16.577Z,9.00
2017-05-13T04:10:17.312Z,11.00
2017-05-13T04:11:18.067Z,10.00
2017-05-13T04:12:18.802Z,11.00
2017-05-13T04:13:19.784Z,9.00
2017-05-13T04:14:20.511Z,11.00
2017-05-13T04:15:21.246Z,10.00
2017-05-13T04:16:21.979Z,12.00
2017-05-13T04:17:22.738Z,10.00
2017-05-13T04:18:23.744Z,10.00
2017-05-13T04:19:24.477Z,10.00
2017-05-13T04:20:25.212Z,10.00
2017-05-13T04:21:25.944Z,13.00
2017-05-13T04:22:26.678Z,13.00
2017-05-13T04:23:27.661Z,11.00
2017-05-13T04:24:28.394Z,13.00
2017-05-13T04:25:29.127Z,14.00
2017-05-13T04:26:29.859Z,13.00
2017-05-13T04:27:30.593Z,15.00
2017-05-13T04:28:31.631Z,13.00
2017-05-13T04:29:32.361Z,11.00
2017-05-13T04:30:33.119Z,17.00
2017-05-13T04:31:33.853Z,15.00
2017-05-13T04:32:34.588Z,14.00
2017-05-13T04:33:35.570Z,13.00
2017-05-13T04:34:36.302Z,15.00
2017-05-13T04:35:37.032Z,12.00
2017-05-13T04:36:37.768Z,15.00
2017-05-13T04:37:38.505Z,14.00
2017-05-13T04:38:39.485Z,13.00
2017-05-13T04:39:40.213Z,12.00
2017-05-13T04:40:40.948Z,14.00
2017-05-13T04:41:41.679Z,15.00
2017-05-13T04:42:42.413Z,12.00
2017-05-13T04:43:43.397Z,12.00
2017-05-13T04:44:44.139Z,12.00
2017-05-13T04:45:44.866Z,11.00
2017-05-13T04:46:45.598Z,10.00
2017-05-13T04:47:46.334Z,10.00
2017-05-13T04:48:47.320Z,12.00
2017-05-13T04:49:48.053Z,13.00
2017-05-13T04:50:48.784Z,13.00
2017-05-13T04:51:49.516Z,12.00
2017-05-13T04:52:50.251Z,14.00
2017-05-13T04:53:51.237Z,13.00
2017-05-13T04:54:51.968Z,14.00
2017-05-13T04:55:52.700Z,14.00
2017-05-13T04:56:53.435Z,13.00
2017-05-13T04:57:54.167Z,14.00
2017-05-13T04:58:55.151Z,14.00
2017-05-13T04:59:55.886Z,12.00
2017-05-13T05:00:56.617Z,14.00
2017-05-13T05:01:57.348Z,12.00
2017-05-13T05:02:58.085Z,18.00
2017-05-13T05:03:59.069Z,13.00
2017-05-13T05:04:59.829Z,15.00
2017-05-13T05:06:00.588Z,15.00
2017-05-13T05:07:01.325Z,15.00
2017-05-13T05:08:02.058Z,15.00
2017-05-13T05:09:03.067Z,14.00
2017-05-13T05:10:03.801Z,15.00
2017-05-13T05:11:04.535Z,15.00
2017-05-13T05:12:05.270Z,14.00
2017-05-13T05:13:06.002Z,13.00
2017-05-13T05:14:06.986Z,17.00
2017-05-13T05:15:07.744Z,16.00
2017-05-13T05:16:08.479Z,14.00
2017-05-13T05:17:09.212Z,14.00
2017-05-13T05:18:09.945Z,13.00
2017-05-13T05:19:10.928Z,14.00
2017-05-13T05:20:11.660Z,15.00
2017-05-13T05:21:12.393Z,14.00
2017-05-13T05:22:13.126Z,14.00
2017-05-13T05:23:13.859Z,14.00
2017-05-13T05:24:14.846Z,12.00
2017-05-13T05:25:15.606Z,14.00
2017-05-13T05:26:16.342Z,12.00
2017-05-13T05:27:17.075Z,13.00
2017-05-13T05:28:17.835Z,15.00
2017-05-13T05:29:18.850Z,11.00
2017-05-13T05:30:19.580Z,13.00
2017-05-13T05:31:20.319Z,15.00
2017-05-13T05:32:21.048Z,12.00
2017-05-13T05:33:21.782Z,10.00
2017-05-13T05:34:22.771Z,14.00
2017-05-13T05:35:23.501Z,12.00
2017-05-13T05:36:24.231Z,12.00
2017-05-13T05:37:24.967Z,12.00
2017-05-13T05:38:25.726Z,10.00
2017-05-13T05:39:26.762Z,12.00
2017-05-13T05:40:27.498Z,11.00
2017-05-13T05:41:28.232Z,12.00
2017-05-13T05:42:28.968Z,15.00
2017-05-13T05:43:29.700Z,10.00
2017-05-13T05:44:30.685Z,13.00
2017-05-13T05:45:31.425Z,13.00
2017-05-13T05:46:32.156Z,11.00
2017-05-13T05:47:32.891Z,11.00
2017-05-13T05:48:33.627Z,12.00
2017-05-13T05:49:34.615Z,12.00
2017-05-13T05:50:35.342Z,11.00
2017-05-13T05:51:36.081Z,10.00
2017-05-13T05:52:36.812Z,11.00
2017-05-13T05:57:24.583Z,11.00
2017-05-13T05:58:25.346Z,10.00
2017-05-13T05:59:26.083Z,11.00
2017-05-13T06:00:26.818Z,11.00
2017-05-13T06:01:27.556Z,11.00
2017-05-13T06:02:28.542Z,9.00
2017-05-13T06:03:29.279Z,10.00
2017-05-13T06:04:30.015Z,10.00
2017-05-13T06:05:30.751Z,9.00
2017-05-13T06:06:31.489Z,12.00
2017-05-13T06:07:32.476Z,11.00
2017-05-13T06:08:33.214Z,10.00
2017-05-13T06:09:33.952Z,12.00
2017-05-13T06:10:34.686Z,11.00
2017-05-13T06:11:35.422Z,9.00
2017-05-13T06:12:36.438Z,10.00
2017-05-13T06:13:37.171Z,9.00
2017-05-13T06:14:37.909Z,10.00
2017-05-13T06:15:38.645Z,10.00
2017-05-13T06:16:39.377Z,9.00
2017-05-13T06:17:40.366Z,12.00
2017-05-13T06:18:41.100Z,10.00
2017-05-13T06:19:41.838Z,10.00
2017-05-13T06:20:42.575Z,10.00
2017-05-13T06:21:43.314Z,9.00
2017-05-13T06:22:44.300Z,9.00
2017-05-13T06:23:45.037Z,10.00
2017-05-13T06:24:45.773Z,10.00
2017-05-13T06:25:46.511Z,10.00
2017-05-13T06:26:47.248Z,11.00
2017-05-13T06:27:48.233Z,9.00
2017-05-13T06:28:48.976Z,9.00
2017-05-13T06:29:49.708Z,11.00
2017-05-13T06:30:50.445Z,16.00
2017-05-13T06:31:51.178Z,10.00
2017-05-13T06:32:52.161Z,9.00
2017-05-13T06:33:52.898Z,11.00
2017-05-13T06:34:53.635Z,10.00
2017-05-13T06:35:54.373Z,12.00
2017-05-13T06:36:55.112Z,10.00
2017-05-13T06:37:56.099Z,9.00
2017-05-13T06:38:56.835Z,11.00
2017-05-13T06:39:57.575Z,10.00
2017-05-13T06:40:58.312Z,11.00
2017-05-13T06:41:59.051Z,10.00
2017-05-13T06:43:00.038Z,10.00
2017-05-13T06:44:00.801Z,10.00
2017-05-13T06:45:01.564Z,10.00
2017-05-13T06:46:02.304Z,10.00
2017-05-13T06:47:03.044Z,10.00
2017-05-13T06:48:04.026Z,10.00
2017-05-13T06:49:04.766Z,11.00
2017-05-13T06:50:05.501Z,12.00
2017-05-13T06:51:06.238Z,11.00
2017-05-13T06:52:06.972Z,7.00
2017-05-13T06:53:07.960Z,10.00
2017-05-13T06:54:08.723Z,11.00
2017-05-13T06:55:09.466Z,10.00
2017-05-13T06:56:10.204Z,10.00
2017-05-13T06:57:10.939Z,10.00
2017-05-13T06:58:11.926Z,9.00
2017-05-13T06:59:12.662Z,9.00
2017-05-13T07:00:13.397Z,10.00
2017-05-13T07:01:14.135Z,9.00
2017-05-13T07:02:14.899Z,10.00
2017-05-13T07:03:15.915Z,10.00
2017-05-13T07:04:16.655Z,10.00
2017-05-13T07:05:17.416Z,12.00
2017-05-13T07:06:18.200Z,10.00
2017-05-13T07:07:18.891Z,10.00
2017-05-13T07:08:19.884Z,9.00
2017-05-13T07:09:20.645Z,9.00
2017-05-13T07:10:21.379Z,11.00
2017-05-13T07:11:22.140Z,9.00
2017-05-13T07:12:22.879Z,8.00
2017-05-13T07:13:23.893Z,10.00
2017-05-13T07:14:24.631Z,9.00
2017-05-13T07:15:25.395Z,9.00
2017-05-13T07:16:26.161Z,10.00
2017-05-13T07:17:26.897Z,9.00
2017-05-13T07:18:27.885Z,11.00
2017-05-13T07:19:28.619Z,8.00
2017-05-13T07:20:29.356Z,11.00
2017-05-13T07:21:30.092Z,9.00
2017-05-13T07:22:30.830Z,9.00
2017-05-13T07:23:31.841Z,9.00
2017-05-13T07:24:32.579Z,9.00
2017-05-13T07:25:33.318Z,9.00
2017-05-13T07:26:34.061Z,10.00
2017-05-13T07:27:34.797Z,9.00
2017-05-13T07:28:35.787Z,11.00
2017-05-13T07:29:36.525Z,8.00
2017-05-13T07:30:37.265Z,9.00
2017-05-13T07:31:38.001Z,7.00
2017-05-13T07:32:38.734Z,7.00
2017-05-13T07:33:39.721Z,8.00
2017-05-13T07:34:40.459Z,7.00
2017-05-13T07:35:41.199Z,7.00
2017-05-13T07:36:41.934Z,8.00
2017-05-13T07:37:42.668Z,7.00
2017-05-13T07:38:43.655Z,8.00
2017-05-13T07:39:44.395Z,8.00
2017-05-13T07:40:45.129Z,7.00
2017-05-13T07:41:45.863Z,7.00
2017-05-13T07:42:46.607Z,8.00
2017-05-13T07:43:47.588Z,7.00
2017-05-13T07:44:48.324Z,7.00
2017-05-13T07:45:49.059Z,8.00
2017-05-13T07:46:49.798Z,7.00
2017-05-13T07:47:50.535Z,7.00
2017-05-13T07:48:51.520Z,6.00
2017-05-13T07:49:52.258Z,8.00
2017-05-13T07:50:52.994Z,7.00
2017-05-13T07:51:53.730Z,7.00
2017-05-13T07:52:54.466Z,8.00
2017-05-13T07:53:55.452Z,8.00
2017-05-13T07:54:56.188Z,7.00
2017-05-13T07:55:56.925Z,7.00
2017-05-13T07:56:57.662Z,6.00
2017-05-13T07:57:58.401Z,7.00
2017-05-13T07:58:59.389Z,8.00
2017-05-13T08:00:00.124Z,7.00
2017-05-13T08:01:00.888Z,7.00
2017-05-13T08:02:01.624Z,7.00
2017-05-13T08:03:02.360Z,8.00
2017-05-13T08:04:03.345Z,5.00
2017-05-13T08:05:04.083Z,6.00
2017-05-13T08:06:04.821Z,7.00
2017-05-13T08:07:05.557Z,5.00
2017-05-13T08:08:06.318Z,7.00
2017-05-13T08:09:07.305Z,9.00
2017-05-13T08:10:08.045Z,7.00
2017-05-13T08:11:08.778Z,8.00
2017-05-13T08:12:09.514Z,7.00
2017-05-13T08:13:10.250Z,8.00
2017-05-13T08:14:11.264Z,7.00
2017-05-13T08:15:12.000Z,6.00
2017-05-13T08:16:12.738Z,7.00
2017-05-13T08:17:13.473Z,6.00
2017-05-13T08:18:14.210Z,8.00
2017-05-13T08:19:15.191Z,7.00
2017-05-13T08:20:15.932Z,7.00
2017-05-13T08:21:16.695Z,7.00
2017-05-13T08:22:17.432Z,6.00
2017-05-13T08:23:18.168Z,5.00
2017-05-13T08:24:19.160Z,9.00
2017-05-13T08:25:19.892Z,6.00
2017-05-13T08:26:20.656Z,7.00
2017-05-13T08:27:21.393Z,6.00
2017-05-13T08:28:22.128Z,6.00
2017-05-13T08:29:23.116Z,8.00
2017-05-13T08:30:23.852Z,6.00
2017-05-13T08:31:24.588Z,7.00
2017-05-13T08:32:25.323Z,6.00
2017-05-13T08:33:26.060Z,7.00
2017-05-13T08:34:27.047Z,9.00
2017-05-13T08:35:27.784Z,7.00
2017-05-13T08:36:28.522Z,7.00
2017-05-13T08:37:29.261Z,8.00
2017-05-13T08:38:29.997Z,7.00
2017-05-13T08:39:30.983Z,8.00
2017-05-13T08:40:31.747Z,7.00
2017-05-13T08:41:32.488Z,7.00
2017-05-13T08:42:33.223Z,8.00
2017-05-13T08:43:33.962Z,7.00
2017-05-13T08:44:34.951Z,6.00
2017-05-13T08:45:35.690Z,6.00
2017-05-13T08:46:36.431Z,10.00
2017-05-13T08:47:37.169Z,4.00
2017-05-13T08:48:37.906Z,7.00
2017-05-13T08:49:38.963Z,7.00
2017-05-13T08:50:39.687Z,5.00
2017-05-13T08:51:40.425Z,5.00
2017-05-13T08:52:41.164Z,6.00
2017-05-13T08:53:41.902Z,7.00
2017-05-13T08:54:42.893Z,6.00
2017-05-13T08:55:43.631Z,5.00
2017-05-13T08:56:44.397Z,5.00
2017-05-13T08:57:45.136Z,5.00
2017-05-13T08:58:45.874Z,5.00
2017-05-13T08:59:46.864Z,7.00
2017-05-13T09:00:47.603Z,5.00
2017-05-13T09:01:48.341Z,6.00
2017-05-13T09:02:49.080Z,5.00
2017-05-13T09:03:49.819Z,6.00
2017-05-13T09:04:50.809Z,5.00
2017-05-13T09:05:51.548Z,8.00
2017-05-13T09:06:52.290Z,7.00
2017-05-13T09:07:53.028Z,5.00
2017-05-13T09:08:53.775Z,5.00
2017-05-13T09:09:54.755Z,7.00
2017-05-13T09:10:55.495Z,6.00
2017-05-13T09:11:56.236Z,5.00
2017-05-13T09:12:56.976Z,6.00
2017-05-13T09:13:57.717Z,5.00
2017-05-13T09:14:58.699Z,6.00
2017-05-13T09:15:59.439Z,6.00
2017-05-13T09:17:00.180Z,5.00
2017-05-13T09:18:00.920Z,4.00
2017-05-13T09:19:01.662Z,6.00
2017-05-13T09:20:02.653Z,6.00
2017-05-13T09:21:03.421Z,5.00
2017-05-13T09:22:04.163Z,6.00
2017-05-13T09:23:04.906Z,5.00
2017-05-13T09:24:05.688Z,5.00
2017-05-13T09:25:06.644Z,6.00
2017-05-13T09:26:07.391Z,5.00
2017-05-13T09:27:08.138Z,5.00
2017-05-13T09:28:08.908Z,5.00
2017-05-13T09:29:09.658Z,4.00
2017-05-13T09:30:10.655Z,5.00
2017-05-13T09:31:11.405Z,5.00
2017-05-13T09:32:12.152Z,4.00
2017-05-13T09:33:12.897Z,6.00
2017-05-13T09:34:13.669Z,5.00
2017-05-13T09:35:14.665Z,4.00
2017-05-13T09:36:15.438Z,6.00
2017-05-13T09:37:16.184Z,6.00
2017-05-13T09:38:16.930Z,6.00
2017-05-13T09:39:17.676Z,5.00
2017-05-13T09:40:18.675Z,4.00
2017-05-13T09:41:19.450Z,6.00
2017-05-13T09:42:20.195Z,4.00
2017-05-13T09:43:20.955Z,5.00
2017-05-13T09:44:21.688Z,4.00
2017-05-13T09:45:22.732Z,8.00
2017-05-13T09:46:23.431Z,5.00
2017-05-13T09:47:24.175Z,8.00
2017-05-13T09:48:24.919Z,5.00
2017-05-13T09:49:25.688Z,6.00
2017-05-13T09:50:26.683Z,6.00
2017-05-13T09:51:27.454Z,6.00
2017-05-13T09:52:28.224Z,7.00
2017-05-13T09:53:28.968Z,6.00
2017-05-13T09:54:29.713Z,7.00
2017-05-13T09:55:30.708Z,7.00
2017-05-13T09:56:31.476Z,6.00
2017-05-13T09:57:32.223Z,7.00
2017-05-13T09:58:32.969Z,5.00
2017-05-13T09:59:33.715Z,6.00
2017-05-13T10:00:34.710Z,6.00
2017-05-13T10:01:35.454Z,8.00
2017-05-13T10:02:36.193Z,6.00
2017-05-13T10:03:36.939Z,6.00
2017-05-13T10:04:37.685Z,6.00
2017-05-13T10:05:38.683Z,7.00
2017-05-13T10:06:39.430Z,6.00
2017-05-13T10:07:40.172Z,6.00
2017-05-13T10:08:40.916Z,6.00
2017-05-13T10:09:41.686Z,7.00
2017-05-13T10:10:42.675Z,7.00
2017-05-13T10:11:43.419Z,7.00
2017-05-13T10:12:44.160Z,6.00
2017-05-13T10:13:44.929Z,6.00
2017-05-13T10:14:45.672Z,7.00
2017-05-13T10:15:46.692Z,8.00
2017-05-13T10:16:47.462Z,7.00
2017-05-13T10:17:48.207Z,7.00
2017-05-13T10:18:48.953Z,6.00
2017-05-13T10:19:49.697Z,7.00
2017-05-13T10:20:50.717Z,6.00
2017-05-13T10:21:51.460Z,7.00
2017-05-13T10:22:52.200Z,8.00
2017-05-13T10:23:52.937Z,7.00
2017-05-13T10:24:53.675Z,7.00
2017-05-13T10:25:54.696Z,7.00
2017-05-13T10:26:55.436Z,6.00
2017-05-13T10:27:56.182Z,7.00
2017-05-13T10:28:56.926Z,6.00
2017-05-13T10:29:57.677Z,8.00
2017-05-13T10:30:58.666Z,7.00
2017-05-13T10:31:59.413Z,7.00
2017-05-13T10:33:00.155Z,6.00
2017-05-13T10:34:00.905Z,6.00
2017-05-13T10:35:01.650Z,7.00
2017-05-13T10:36:02.648Z,7.00
2017-05-13T10:37:03.396Z,7.00
2017-05-13T10:38:04.146Z,8.00
2017-05-13T10:39:04.894Z,6.00
2017-05-13T10:40:05.641Z,6.00
2017-05-13T10:41:06.638Z,7.00
2017-05-13T10:42:07.380Z,6.00
2017-05-13T10:43:08.126Z,7.00
2017-05-13T10:44:08.873Z,7.00
2017-05-13T10:45:09.612Z,5.00
2017-05-13T10:46:10.632Z,6.00
2017-05-13T10:47:11.375Z,6.00
2017-05-13T10:48:12.116Z,6.00
2017-05-13T10:49:12.882Z,5.00
2017-05-13T10:50:13.623Z,7.00
2017-05-13T10:51:14.640Z,6.00
2017-05-13T10:52:15.409Z,6.00
2017-05-13T10:53:16.177Z,6.00
2017-05-13T10:54:16.917Z,6.00
2017-05-13T10:55:17.660Z,6.00
2017-05-13T10:56:18.660Z,7.00
2017-05-13T10:57:19.396Z,7.00
2017-05-13T10:58:20.167Z,7.00
2017-05-13T10:59:20.912Z,9.00
2017-05-13T11:00:21.654Z,7.00
2017-05-13T11:01:22.651Z,7.00
2017-05-13T11:02:23.399Z,7.00
2017-05-13T11:03:24.151Z,7.00
2017-05-13T11:04:24.901Z,5.00
2017-05-13T11:05:25.658Z,7.00
2017-05-13T11:06:26.651Z,4.00
2017-05-13T11:07:27.395Z,5.00
2017-05-13T11:08:28.141Z,6.00
2017-05-13T11:09:28.891Z,6.00
2017-05-13T11:10:29.638Z,5.00
2017-05-13T11:11:30.639Z,7.00
2017-05-13T11:12:31.414Z,5.00
2017-05-13T11:13:32.166Z,6.00
2017-05-13T11:14:32.916Z,6.00
2017-05-13T11:15:33.667Z,6.00
2017-05-13T11:16:34.665Z,6.00
2017-05-13T11:17:35.410Z,9.00
2017-05-13T11:18:36.156Z,7.00
2017-05-13T11:19:36.903Z,12.00
2017-05-13T11:20:37.658Z,9.00
2017-05-13T11:21:38.654Z,7.00
2017-05-13T11:22:39.401Z,7.00
2017-05-13T11:23:40.148Z,7.00
2017-05-13T11:24:40.896Z,7.00
2017-05-13T11:25:41.650Z,7.00
2017-05-13T11:26:42.641Z,7.00
2017-05-13T11:27:43.387Z,7.00
2017-05-13T11:28:44.132Z,8.00
2017-05-13T11:29:44.903Z,8.00
2017-05-13T11:30:45.649Z,7.00
2017-05-13T11:31:46.645Z,8.00
2017-05-13T11:32:47.649Z,9.00
2017-05-13T11:33:48.395Z,7.00
2017-05-13T11:34:49.141Z,6.00
2017-05-13T11:35:49.915Z,9.00
2017-05-13T11:36:50.912Z,6.00
2017-05-13T11:37:51.661Z,7.00
2017-05-13T11:38:52.433Z,6.00
2017-05-13T11:39:53.210Z,9.00
2017-05-13T11:40:53.958Z,8.00
2017-05-13T11:41:54.954Z,5.00
2017-05-13T11:42:55.700Z,6.00
2017-05-13T11:43:56.448Z,5.00
2017-05-13T11:44:57.196Z,5.00
2017-05-13T11:45:57.939Z,4.00
2017-05-13T11:46:58.936Z,5.00
2017-05-13T11:47:59.681Z,4.00
2017-05-13T11:49:00.432Z,3.00
2017-05-13T11:50:01.171Z,3.00
2017-05-13T11:51:01.918Z,2.00
2017-05-13T11:52:02.941Z,3.00
2017-05-13T11:53:03.687Z,2.00
2017-05-13T11:54:04.426Z,3.00
2017-05-13T11:55:05.173Z,2.00
2017-05-13T11:56:05.943Z,2.00
2017-05-13T11:57:06.938Z,2.00
2017-05-13T11:58:07.675Z,2.00
2017-05-13T11:59:08.444Z,3.00
2017-05-13T12:00:09.187Z,3.00
2017-05-13T12:01:09.929Z,3.00
2017-05-13T12:02:10.926Z,3.00
2017-05-13T12:03:11.667Z,2.00
2017-05-13T12:04:12.437Z,2.00
2017-05-13T12:05:13.183Z,2.00
2017-05-13T12:06:13.926Z,3.00
2017-05-13T12:07:14.918Z,2.00
2017-05-13T12:08:15.665Z,3.00
2017-05-13T12:09:16.437Z,2.00
2017-05-13T12:10:17.182Z,3.00
2017-05-13T12:11:17.925Z,3.00
2017-05-13T12:12:18.918Z,2.00
2017-05-13T12:13:19.659Z,2.00
2017-05-13T12:14:20.402Z,2.00
2017-05-13T12:15:21.142Z,3.00
2017-05-13T12:16:21.884Z,3.00
2017-05-13T12:17:22.924Z,2.00
2017-05-13T12:18:23.644Z,2.00
2017-05-13T12:19:24.386Z,2.00
2017-05-13T12:20:25.127Z,3.00
2017-05-13T12:21:25.869Z,3.00
2017-05-13T12:22:26.856Z,3.00
2017-05-13T12:23:27.597Z,3.00
2017-05-13T12:24:28.339Z,2.00
2017-05-13T12:25:29.084Z,2.00
2017-05-13T12:26:29.826Z,2.00
2017-05-13T12:27:30.827Z,3.00
2017-05-13T12:28:31.576Z,2.00
2017-05-13T12:29:32.320Z,3.00
2017-05-13T12:30:33.063Z,3.00
2017-05-13T12:31:33.809Z,5.00
2017-05-13T12:32:34.804Z,3.00
2017-05-13T12:33:35.547Z,3.00
2017-05-13T12:34:36.292Z,3.00
2017-05-13T12:35:37.037Z,3.00
2017-05-13T12:36:37.784Z,3.00
2017-05-13T12:37:38.783Z,3.00
2017-05-13T12:38:39.530Z,3.00
2017-05-13T12:39:40.278Z,2.00
2017-05-13T12:40:41.051Z,3.00
2017-05-13T12:41:41.802Z,2.00
2017-05-13T12:42:42.802Z,2.00
2017-05-13T12:43:43.552Z,2.00
2017-05-13T12:44:44.302Z,2.00
2017-05-13T12:45:45.053Z,2.00
2017-05-13T12:46:45.805Z,2.00
2017-05-13T12:47:46.804Z,3.00
2017-05-13T12:48:47.553Z,3.00
2017-05-13T12:49:48.303Z,2.00
2017-05-13T12:50:49.053Z,2.00
2017-05-13T12:51:49.803Z,2.00
2017-05-13T12:52:50.801Z,3.00
2017-05-13T12:53:51.550Z,3.00
2017-05-13T12:54:52.324Z,2.00
2017-05-13T12:55:53.098Z,2.00
2017-05-13T12:56:53.846Z,3.00
2017-05-13T12:57:54.870Z,3.00
2017-05-13T12:58:55.618Z,3.00
2017-05-13T12:59:56.367Z,2.00
2017-05-13T13:00:57.114Z,2.00
2017-05-13T13:01:57.863Z,3.00
2017-05-13T13:02:58.859Z,2.00
2017-05-13T13:03:59.608Z,2.00
2017-05-13T13:05:00.360Z,2.00
2017-05-13T13:06:01.113Z,2.00
2017-05-13T13:07:01.863Z,2.00
2017-05-13T13:08:02.863Z,3.00
2017-05-13T13:09:03.612Z,2.00
2017-05-13T13:10:04.363Z,2.00
2017-05-13T13:11:05.113Z,3.00
2017-05-13T13:12:05.867Z,2.00
2017-05-13T13:13:06.867Z,2.00
2017-05-13T13:14:07.618Z,2.00
2017-05-13T13:15:08.390Z,2.00
2017-05-13T13:16:09.136Z,2.00
2017-05-13T13:17:09.877Z,1.00
2017-05-13T13:18:10.875Z,2.00
2017-05-13T13:19:11.621Z,2.00
2017-05-13T13:20:12.626Z,2.00
2017-05-13T13:21:13.370Z,2.00
2017-05-13T13:22:14.112Z,2.00
2017-05-13T13:23:15.102Z,2.00
2017-05-13T13:24:15.847Z,1.00
2017-05-13T13:25:16.590Z,2.00
2017-05-13T13:26:17.361Z,2.00